Time;durP1;ratioP1;P1;durP2;ratioP2;P2;SDS_P1;SDS_P2;PMS_P1;PMS_P2;Temp;Humidity;BMP_temperature;BMP_pressure;BME280_temperature;BME280_humidity;BME280_pressure;Samples;Min_cycle;Max_cycle;Signal;HPM_P1;HPM_P2
2022/05/22 00:02:05;;;;;;;7.00;6.30;;;;;;;;;;5064450;28;24430;-45
2022/05/22 00:04:30;;;;;;;7.17;6.57;;;;;;;;;;5068312;28;24524;-46
2022/05/22 00:06:55;;;;;;;7.00;6.40;;;;;;;;;;5078101;28;24478;-46
2022/05/22 00:09:20;;;;;;;6.70;6.20;;;;;;;;;;5069421;28;24979;-46
2022/05/22 00:11:46;;;;;;;6.30;5.80;;;;;;;;;;5064388;28;24773;-46
2022/05/22 00:14:12;;;;;;;5.82;5.32;;;;;;;;;;5066482;28;24426;-47
2022/05/22 00:16:41;;;;;;;5.87;5.37;;;;;;;;;;5066429;28;24835;-46
2022/05/22 00:19:07;;;;;;;6.50;5.90;;;;;;;;;;5087432;28;24387;-46
2022/05/22 00:21:33;;;;;;;5.40;5.00;;;;;;;;;;5068460;28;24427;-48
2022/05/22 00:23:58;;;;;;;5.30;4.80;;;;;;;;;;5085437;28;24556;-46
2022/05/22 00:26:23;;;;;;;5.00;4.60;;;;;;;;;;5077938;28;24422;-47
2022/05/22 00:28:48;;;;;;;5.50;5.10;;;;;;;;;;5053454;28;24758;-46
2022/05/22 00:31:14;;;;;;;5.60;5.10;;;;;;;;;;5066037;28;24449;-47
2022/05/22 00:33:39;;;;;;;6.28;5.78;;;;;;;;;;5075254;28;24479;-48
2022/05/22 00:36:05;;;;;;;6.10;5.60;;;;;;;;;;5085147;28;24561;-47
2022/05/22 00:38:30;;;;;;;5.45;4.95;;;;;;;;;;5080607;28;25356;-46
2022/05/22 00:40:55;;;;;;;6.00;5.40;;;;;;;;;;5076005;28;24855;-46
2022/05/22 00:43:24;;;;;;;5.90;5.40;;;;;;;;;;5067170;28;24407;-46
2022/05/22 00:45:50;;;;;;;6.10;5.60;;;;;;;;;;5052050;28;24437;-47
2022/05/22 00:48:15;;;;;;;6.07;5.57;;;;;;;;;;5067665;28;24777;-44
2022/05/22 00:50:40;;;;;;;5.90;5.40;;;;;;;;;;5064340;28;24824;-47
2022/05/22 00:53:05;;;;;;;5.82;5.32;;;;;;;;;;5068662;28;24513;-45
2022/05/22 00:55:31;;;;;;;6.40;5.80;;;;;;;;;;5086062;28;24437;-45
2022/05/22 00:58:02;;;;;;;6.85;6.15;;;;;;;;;;5085610;28;24441;-45
2022/05/22 01:00:29;;;;;;;5.80;5.40;;;;;;;;;;5075858;28;24419;-46
2022/05/22 01:05:41;;;;;;;5.78;5.28;;;;;;;;;;5061906;28;25110;-45
2022/05/22 01:08:06;;;;;;;6.20;5.60;;;;;;;;;;5068588;28;24518;-45
2022/05/22 01:10:39;;;;;;;6.20;5.70;;;;;;;;;;5069839;28;24497;-45
2022/05/22 01:13:05;;;;;;;6.30;5.80;;;;;;;;;;5070723;28;24406;-44
2022/05/22 01:15:30;;;;;;;5.90;5.40;;;;;;;;;;5071008;28;24457;-45
2022/05/22 01:17:55;;;;;;;8.13;7.32;;;;;;;;;;5069167;28;24458;-45
2022/05/22 01:20:20;;;;;;;7.30;6.70;;;;;;;;;;5054321;28;24994;-46
2022/05/22 01:22:46;;;;;;;6.80;6.30;;;;;;;;;;5069251;28;24437;-45
2022/05/22 01:25:11;;;;;;;7.50;6.90;;;;;;;;;;5072642;28;24454;-45
2022/05/22 01:27:37;;;;;;;7.00;6.40;;;;;;;;;;5064103;28;24462;-46
2022/05/22 01:30:04;;;;;;;7.18;6.57;;;;;;;;;;5064203;28;24484;-45
2022/05/22 01:32:32;;;;;;;7.30;6.70;;;;;;;;;;5065781;28;26357;-45
2022/05/22 01:34:57;;;;;;;6.80;6.30;;;;;;;;;;5059715;28;24572;-45
2022/05/22 01:37:22;;;;;;;6.97;6.38;;;;;;;;;;5053547;28;25013;-45
2022/05/22 01:39:48;;;;;;;7.00;6.50;;;;;;;;;;5061773;28;24415;-45
2022/05/22 01:42:13;;;;;;;7.33;6.70;;;;;;;;;;5072308;28;24425;-45
2022/05/22 01:44:38;;;;;;;7.00;6.40;;;;;;;;;;5066414;28;24421;-45
2022/05/22 01:47:03;;;;;;;6.73;6.23;;;;;;;;;;5064571;28;24508;-45
2022/05/22 01:49:29;;;;;;;7.10;6.50;;;;;;;;;;5067390;28;24453;-45
2022/05/22 01:51:54;;;;;;;7.28;6.72;;;;;;;;;;5058360;28;24427;-45
2022/05/22 01:54:19;;;;;;;7.60;6.90;;;;;;;;;;5060010;28;24426;-45
2022/05/22 01:56:44;;;;;;;7.05;6.53;;;;;;;;;;5070783;28;25246;-45
2022/05/22 01:59:09;;;;;;;7.60;7.00;;;;;;;;;;5066493;28;24498;-45
2022/05/22 02:01:34;;;;;;;6.80;6.20;;;;;;;;;;5067942;28;24485;-45
2022/05/22 02:03:59;;;;;;;7.53;6.93;;;;;;;;;;5066154;28;25100;-45
2022/05/22 02:06:25;;;;;;;7.30;6.60;;;;;;;;;;5067023;28;24700;-46
2022/05/22 02:08:50;;;;;;;7.22;6.63;;;;;;;;;;5068464;28;24422;-46
2022/05/22 02:11:15;;;;;;;7.50;6.90;;;;;;;;;;5061401;28;24427;-45
2022/05/22 02:13:43;;;;;;;7.00;6.50;;;;;;;;;;5068503;28;24448;-45
2022/05/22 02:16:08;;;;;;;7.00;6.50;;;;;;;;;;5057573;28;24426;-45
2022/05/22 02:18:33;;;;;;;7.37;6.87;;;;;;;;;;5056894;28;24415;-45
2022/05/22 02:20:59;;;;;;;7.05;6.55;;;;;;;;;;5062600;28;24430;-45
2022/05/22 02:23:24;;;;;;;7.90;7.20;;;;;;;;;;5072527;28;24869;-45
2022/05/22 02:25:51;;;;;;;8.57;7.97;;;;;;;;;;5057382;28;24817;-45
2022/05/22 02:28:17;;;;;;;8.13;7.43;;;;;;;;;;5065698;28;24458;-44
2022/05/22 02:30:44;;;;;;;7.63;6.93;;;;;;;;;;5071183;28;24434;-45
2022/05/22 02:33:10;;;;;;;7.82;7.22;;;;;;;;;;5065401;28;24935;-44
2022/05/22 02:35:35;;;;;;;7.10;6.60;;;;;;;;;;5077791;28;24825;-46
2022/05/22 02:38:00;;;;;;;7.00;6.50;;;;;;;;;;5072773;28;24431;-46
2022/05/22 02:40:27;;;;;;;7.40;6.80;;;;;;;;;;5068117;28;24541;-47
2022/05/22 02:42:53;;;;;;;6.90;6.40;;;;;;;;;;5070875;28;24422;-45
2022/05/22 02:45:20;;;;;;;7.30;6.70;;;;;;;;;;5075667;28;24410;-45
2022/05/22 02:47:45;;;;;;;6.70;6.20;;;;;;;;;;5068239;28;24518;-45
2022/05/22 02:50:11;;;;;;;7.20;6.70;;;;;;;;;;5063026;28;24850;-45
2022/05/22 02:52:36;;;;;;;8.10;7.30;;;;;;;;;;5067880;28;24419;-45
2022/05/22 02:55:01;;;;;;;7.50;6.80;;;;;;;;;;5071538;28;24417;-45
2022/05/22 02:57:26;;;;;;;7.00;6.30;;;;;;;;;;5084344;28;24473;-46
2022/05/22 02:59:53;;;;;;;6.50;5.90;;;;;;;;;;5083964;28;24426;-45
2022/05/22 03:02:18;;;;;;;6.43;5.93;;;;;;;;;;5066741;28;24415;-45
2022/05/22 03:04:44;;;;;;;7.00;6.50;;;;;;;;;;5068031;28;24426;-45
2022/05/22 03:07:12;;;;;;;7.43;6.82;;;;;;;;;;5076611;28;24456;-45
2022/05/22 03:09:38;;;;;;;7.22;6.70;;;;;;;;;;5071675;28;24510;-45
2022/05/22 03:12:04;;;;;;;7.15;6.55;;;;;;;;;;5079670;28;25008;-45
2022/05/22 03:14:29;;;;;;;7.05;6.55;;;;;;;;;;5085294;28;24479;-45
2022/05/22 03:16:55;;;;;;;6.32;5.82;;;;;;;;;;5080252;28;24491;-45
2022/05/22 03:19:20;;;;;;;6.60;6.10;;;;;;;;;;5063094;28;24515;-45
2022/05/22 03:21:45;;;;;;;7.05;6.45;;;;;;;;;;5067028;28;24431;-46
2022/05/22 03:24:10;;;;;;;7.50;6.90;;;;;;;;;;5068755;28;24414;-45
2022/05/22 03:26:36;;;;;;;7.57;6.87;;;;;;;;;;5087538;28;24979;-45
2022/05/22 03:29:01;;;;;;;7.03;6.45;;;;;;;;;;5069545;28;24440;-45
2022/05/22 03:31:26;;;;;;;7.80;7.20;;;;;;;;;;5070764;28;24449;-45
2022/05/22 03:33:51;;;;;;;6.60;6.00;;;;;;;;;;5065234;28;24470;-45
2022/05/22 03:36:17;;;;;;;7.57;6.97;;;;;;;;;;5060671;28;24426;-45
2022/05/22 03:38:42;;;;;;;6.75;6.25;;;;;;;;;;5070844;28;24429;-45
2022/05/22 03:41:07;;;;;;;7.40;6.80;;;;;;;;;;5068384;28;25009;-45
2022/05/22 03:43:32;;;;;;;7.05;6.47;;;;;;;;;;5051170;28;24426;-44
2022/05/22 03:45:57;;;;;;;7.10;6.60;;;;;;;;;;5054192;28;24425;-44
2022/05/22 03:48:22;;;;;;;7.13;6.63;;;;;;;;;;5066914;28;25087;-45
2022/05/22 03:50:48;;;;;;;7.38;6.78;;;;;;;;;;5066666;28;24418;-45
2022/05/22 03:53:14;;;;;;;7.47;6.87;;;;;;;;;;5065921;28;24418;-44
2022/05/22 03:55:39;;;;;;;6.90;6.30;;;;;;;;;;5082130;28;24990;-44
2022/05/22 03:58:04;;;;;;;7.10;6.47;;;;;;;;;;5079495;28;24964;-45
2022/05/22 04:00:29;;;;;;;8.60;7.80;;;;;;;;;;5073230;28;24976;-44
2022/05/22 04:02:54;;;;;;;7.65;6.85;;;;;;;;;;5065167;28;24592;-45
2022/05/22 04:05:20;;;;;;;6.57;6.07;;;;;;;;;;5064004;28;24429;-44
2022/05/22 04:07:46;;;;;;;6.80;6.30;;;;;;;;;;5072494;28;24952;-44
2022/05/22 04:10:12;;;;;;;6.40;5.80;;;;;;;;;;5054517;28;24969;-44
2022/05/22 04:12:38;;;;;;;6.30;5.80;;;;;;;;;;5074264;28;24437;-45
2022/05/22 04:15:04;;;;;;;6.60;6.10;;;;;;;;;;5083767;28;24441;-45
2022/05/22 04:17:29;;;;;;;6.40;5.90;;;;;;;;;;5072394;28;24565;-46
2022/05/22 04:19:54;;;;;;;6.87;6.27;;;;;;;;;;5071506;28;24505;-45
2022/05/22 04:22:19;;;;;;;6.60;6.10;;;;;;;;;;5069941;28;25062;-45
2022/05/22 04:27:28;;;;;;;7.10;6.50;;;;;;;;;;5071920;28;24483;-45
2022/05/22 04:29:53;;;;;;;6.40;5.80;;;;;;;;;;5081648;28;24477;-44
2022/05/22 04:32:19;;;;;;;7.32;6.50;;;;;;;;;;5067245;28;24432;-45
2022/05/22 04:34:44;;;;;;;7.45;6.82;;;;;;;;;;5075552;28;24452;-44
2022/05/22 04:37:10;;;;;;;6.82;6.22;;;;;;;;;;5075797;28;24802;-45
2022/05/22 04:39:35;;;;;;;7.50;6.80;;;;;;;;;;5064173;28;24952;-45
2022/05/22 04:42:00;;;;;;;6.90;6.30;;;;;;;;;;5063831;28;24450;-47
2022/05/22 04:44:25;;;;;;;6.63;6.13;;;;;;;;;;5076233;28;24974;-45
2022/05/22 04:46:50;;;;;;;6.53;5.93;;;;;;;;;;5063338;28;25349;-45
2022/05/22 04:49:15;;;;;;;6.85;6.15;;;;;;;;;;5057867;28;24987;-44
2022/05/22 04:51:40;;;;;;;6.40;5.80;;;;;;;;;;5055224;28;24441;-45
2022/05/22 04:54:06;;;;;;;6.50;6.00;;;;;;;;;;5072922;28;24801;-45
2022/05/22 04:56:31;;;;;;;6.22;5.63;;;;;;;;;;5071686;28;24777;-45
2022/05/22 04:58:56;;;;;;;5.60;5.10;;;;;;;;;;5070451;28;24441;-45
2022/05/22 05:01:21;;;;;;;6.68;6.03;;;;;;;;;;5063673;28;25218;-44
2022/05/22 05:03:46;;;;;;;5.60;5.20;;;;;;;;;;5066675;28;24391;-44
2022/05/22 05:06:11;;;;;;;6.33;5.73;;;;;;;;;;5074596;28;24503;-45
2022/05/22 05:08:37;;;;;;;6.80;6.20;;;;;;;;;;5076554;28;24461;-44
2022/05/22 05:11:02;;;;;;;6.03;5.43;;;;;;;;;;5079998;28;24434;-44
2022/05/22 05:13:28;;;;;;;6.30;5.80;;;;;;;;;;5071587;28;24427;-44
2022/05/22 05:16:00;;;;;;;6.57;6.07;;;;;;;;;;5072204;28;24521;-44
2022/05/22 05:18:26;;;;;;;6.97;6.28;;;;;;;;;;5063583;28;24461;-45
2022/05/22 05:20:51;;;;;;;7.00;5.40;;;;;;;;;;5056538;28;24473;-45
2022/05/22 05:23:16;;;;;;;5.93;5.32;;;;;;;;;;5062824;28;24434;-44
2022/05/22 05:25:42;;;;;;;5.80;5.30;;;;;;;;;;5053515;28;24581;-45
2022/05/22 05:28:07;;;;;;;6.18;5.68;;;;;;;;;;5063363;28;24426;-45
2022/05/22 05:30:32;;;;;;;6.00;5.50;;;;;;;;;;5057607;28;24993;-45
2022/05/22 05:32:57;;;;;;;6.10;5.60;;;;;;;;;;5053798;28;24510;-44
2022/05/22 05:35:22;;;;;;;6.47;5.13;;;;;;;;;;5053597;28;24422;-45
2022/05/22 05:37:48;;;;;;;6.93;5.60;;;;;;;;;;5061351;28;24560;-45
2022/05/22 05:40:13;;;;;;;5.70;5.20;;;;;;;;;;5062561;28;24415;-45
2022/05/22 05:42:39;;;;;;;5.37;4.87;;;;;;;;;;5058338;28;24422;-45
2022/05/22 05:45:05;;;;;;;7.73;5.17;;;;;;;;;;5059251;28;24451;-45
2022/05/22 05:47:30;;;;;;;7.55;5.40;;;;;;;;;;5069920;28;24533;-45
2022/05/22 05:49:56;;;;;;;6.00;5.43;;;;;;;;;;5056493;28;24537;-45
2022/05/22 05:52:21;;;;;;;5.70;5.10;;;;;;;;;;5072092;28;24778;-45
2022/05/22 05:54:46;;;;;;;5.50;4.90;;;;;;;;;;5068895;28;25074;-45
2022/05/22 05:57:12;;;;;;;6.40;4.70;;;;;;;;;;5068102;28;24433;-45
2022/05/22 05:59:37;;;;;;;4.13;3.72;;;;;;;;;;5078647;28;24955;-45
2022/05/22 06:02:03;;;;;;;5.10;4.10;;;;;;;;;;5061498;28;24472;-45
2022/05/22 06:04:28;;;;;;;3.97;3.60;;;;;;;;;;5068436;28;24531;-45
2022/05/22 06:06:53;;;;;;;4.17;3.77;;;;;;;;;;5075116;28;24429;-45
2022/05/22 06:09:18;;;;;;;6.85;4.72;;;;;;;;;;5073943;28;24506;-45
2022/05/22 06:11:43;;;;;;;5.00;4.50;;;;;;;;;;5068599;28;24425;-45
2022/05/22 06:14:09;;;;;;;7.33;5.50;;;;;;;;;;5064713;28;24430;-45
2022/05/22 06:16:34;;;;;;;6.57;4.53;;;;;;;;;;5067296;28;25032;-45
2022/05/22 06:18:59;;;;;;;5.80;4.78;;;;;;;;;;5069604;28;24520;-45
2022/05/22 06:21:24;;;;;;;6.40;5.10;;;;;;;;;;5066115;28;24410;-45
2022/05/22 06:23:50;;;;;;;7.00;5.18;;;;;;;;;;5073680;28;25069;-46
2022/05/22 06:26:17;;;;;;;7.03;4.97;;;;;;;;;;5067323;28;24430;-46
2022/05/22 06:28:42;;;;;;;6.30;4.68;;;;;;;;;;5063616;28;24652;-48
2022/05/22 06:31:08;;;;;;;5.25;4.50;;;;;;;;;;5055766;28;25065;-45
2022/05/22 06:33:34;;;;;;;5.03;4.63;;;;;;;;;;5071897;28;24414;-46
2022/05/22 06:35:59;;;;;;;5.30;4.80;;;;;;;;;;5061832;28;24445;-46
2022/05/22 06:41:09;;;;;;;6.32;5.18;;;;;;;;;;5047142;28;24964;-45
2022/05/22 06:43:35;;;;;;;7.05;4.85;;;;;;;;;;5050324;28;24430;-45
2022/05/22 06:46:00;;;;;;;6.07;5.57;;;;;;;;;;5061753;28;24458;-45
2022/05/22 06:48:25;;;;;;;6.30;5.70;;;;;;;;;;5063939;28;24422;-45
2022/05/22 06:50:50;;;;;;;8.88;6.43;;;;;;;;;;5056553;28;24415;-45
2022/05/22 06:53:16;;;;;;;7.07;5.90;;;;;;;;;;5074961;28;24520;-45
2022/05/22 06:55:41;;;;;;;5.70;5.20;;;;;;;;;;5073002;28;24778;-45
2022/05/22 06:58:06;;;;;;;7.30;5.50;;;;;;;;;;5052966;28;24539;-45
2022/05/22 07:00:32;;;;;;;5.35;4.82;;;;;;;;;;5056318;28;24937;-45
2022/05/22 07:02:57;;;;;;;7.80;5.30;;;;;;;;;;5061177;28;24953;-45
2022/05/22 07:05:22;;;;;;;6.30;5.37;;;;;;;;;;5072004;28;24464;-45
2022/05/22 07:07:47;;;;;;;5.23;4.60;;;;;;;;;;5070152;28;24451;-45
2022/05/22 07:10:13;;;;;;;5.63;4.70;;;;;;;;;;5070599;28;24541;-45
2022/05/22 07:12:38;;;;;;;6.43;5.00;;;;;;;;;;5053689;28;24419;-46
2022/05/22 07:15:03;;;;;;;7.50;5.10;;;;;;;;;;5054369;28;24785;-45
2022/05/22 07:17:29;;;;;;;5.75;4.85;;;;;;;;;;5069919;28;24445;-44
2022/05/22 07:19:55;;;;;;;5.82;5.22;;;;;;;;;;5085483;28;24847;-45
2022/05/22 07:22:20;;;;;;;5.35;4.60;;;;;;;;;;5064244;28;25057;-45
2022/05/22 07:24:46;;;;;;;6.33;4.07;;;;;;;;;;5067330;28;24657;-45
2022/05/22 07:27:11;;;;;;;5.90;4.40;;;;;;;;;;5060829;28;25222;-46
2022/05/22 07:29:36;;;;;;;3.80;3.40;;;;;;;;;;5062290;28;24781;-45
2022/05/22 07:32:03;;;;;;;5.47;4.10;;;;;;;;;;5068832;28;24446;-45
2022/05/22 07:34:28;;;;;;;6.90;4.30;;;;;;;;;;5082710;28;24966;-45
2022/05/22 07:36:54;;;;;;;5.07;4.00;;;;;;;;;;5079509;28;24441;-45
2022/05/22 07:39:20;;;;;;;7.72;3.70;;;;;;;;;;5088229;28;24402;-45
2022/05/22 07:41:45;;;;;;;4.63;3.20;;;;;;;;;;5087360;28;24393;-45
2022/05/22 07:44:10;;;;;;;4.32;3.80;;;;;;;;;;5067221;28;24457;-45
2022/05/22 07:46:35;;;;;;;4.45;2.95;;;;;;;;;;5067413;28;25047;-45
2022/05/22 07:49:00;;;;;;;4.25;3.67;;;;;;;;;;5066759;28;24425;-45
2022/05/22 07:51:26;;;;;;;4.70;4.00;;;;;;;;;;5067461;28;24391;-46
2022/05/22 07:53:51;;;;;;;4.03;3.50;;;;;;;;;;5066290;28;24426;-45
2022/05/22 07:56:16;;;;;;;5.17;3.70;;;;;;;;;;5074987;28;24979;-45
2022/05/22 07:58:42;;;;;;;4.70;3.20;;;;;;;;;;5087549;28;24662;-45
2022/05/22 08:01:07;;;;;;;4.20;3.10;;;;;;;;;;5079034;28;24410;-46
2022/05/22 08:03:32;;;;;;;3.50;3.20;;;;;;;;;;5075150;28;24414;-46
2022/05/22 08:05:57;;;;;;;3.78;3.15;;;;;;;;;;5064810;28;25048;-45
2022/05/22 08:08:23;;;;;;;4.03;3.30;;;;;;;;;;5085334;28;24505;-45
2022/05/22 08:10:48;;;;;;;3.80;3.38;;;;;;;;;;5078674;28;25109;-46
2022/05/22 08:13:13;;;;;;;4.00;2.90;;;;;;;;;;5064565;28;24415;-46
2022/05/22 08:15:39;;;;;;;5.30;3.23;;;;;;;;;;5066974;28;24872;-46
2022/05/22 08:18:07;;;;;;;5.00;3.08;;;;;;;;;;5065739;28;24429;-46
2022/05/22 08:20:33;;;;;;;4.13;2.90;;;;;;;;;;5067197;28;24393;-45
2022/05/22 08:22:59;;;;;;;3.60;2.80;;;;;;;;;;5069961;28;24502;-45
2022/05/22 08:25:26;;;;;;;5.20;2.70;;;;;;;;;;5084863;28;24870;-45
2022/05/22 08:27:52;;;;;;;2.63;2.42;;;;;;;;;;5073205;28;24488;-46
2022/05/22 08:30:17;;;;;;;4.80;2.60;;;;;;;;;;5066509;28;24475;-45
2022/05/22 08:32:44;;;;;;;3.17;2.88;;;;;;;;;;5065691;28;24410;-46
2022/05/22 08:35:10;;;;;;;2.42;2.20;;;;;;;;;;5058641;28;24968;-47
2022/05/22 08:37:35;;;;;;;5.00;3.00;;;;;;;;;;5052212;28;25090;-47
2022/05/22 08:40:01;;;;;;;4.70;2.90;;;;;;;;;;5063511;28;24422;-47
2022/05/22 08:42:43;;;;;;;3.23;2.43;;;;;;;;;;5053856;28;24541;-47
2022/05/22 08:45:22;;;;;;;3.38;2.40;;;;;;;;;;5055683;28;24395;-47
2022/05/22 08:48:20;;;;;;;3.40;2.40;;;;;;;;;;5042307;28;24445;-47
2022/05/22 08:50:45;;;;;;;4.18;2.30;;;;;;;;;;5028115;28;24850;-47
2022/05/22 08:53:20;;;;;;;3.17;2.28;;;;;;;;;;5082083;28;24513;-47
2022/05/22 09:01:19;;;;;;;2.67;2.20;;;;;;;;;;5066350;28;24947;-47
2022/05/22 09:04:08;;;;;;;4.40;2.58;;;;;;;;;;5056304;28;24428;-47
2022/05/22 09:06:37;;;;;;;3.40;2.50;;;;;;;;;;5009877;28;25333;-46
2022/05/22 09:09:03;;;;;;;3.40;2.40;;;;;;;;;;5069639;28;24940;-47
2022/05/22 09:11:40;;;;;;;3.80;2.60;;;;;;;;;;5065377;28;24949;-47
2022/05/22 09:14:09;;;;;;;3.30;2.20;;;;;;;;;;5063787;28;24757;-47
2022/05/22 09:16:43;;;;;;;4.00;2.50;;;;;;;;;;5059034;28;24844;-47
2022/05/22 09:19:11;;;;;;;3.25;2.20;;;;;;;;;;5064072;28;24939;-45
2022/05/22 09:21:36;;;;;;;3.85;2.15;;;;;;;;;;5064013;28;24852;-47
2022/05/22 09:24:01;;;;;;;3.60;2.28;;;;;;;;;;5061398;28;24897;-47
2022/05/22 09:26:29;;;;;;;3.07;2.40;;;;;;;;;;5051153;28;24607;-47
2022/05/22 09:29:06;;;;;;;3.85;2.50;;;;;;;;;;5055599;28;24512;-47
2022/05/22 09:31:38;;;;;;;3.40;2.38;;;;;;;;;;5062309;28;24875;-47
2022/05/22 09:34:12;;;;;;;3.60;2.40;;;;;;;;;;5056729;28;24407;-47
2022/05/22 09:36:47;;;;;;;2.47;1.90;;;;;;;;;;5069752;28;25023;-47
2022/05/22 09:39:34;;;;;;;2.78;2.30;;;;;;;;;;5063525;28;24541;-49
2022/05/22 09:42:29;;;;;;;2.35;2.15;;;;;;;;;;5054961;28;24967;-47
2022/05/22 09:45:00;;;;;;;2.67;2.25;;;;;;;;;;4993279;28;24539;-45
2022/05/22 09:47:33;;;;;;;3.20;2.70;;;;;;;;;;5056476;28;24999;-45
2022/05/22 09:50:08;;;;;;;3.47;2.30;;;;;;;;;;5049229;28;24466;-47
2022/05/22 09:52:45;;;;;;;2.92;2.30;;;;;;;;;;5055719;28;25129;-45
2022/05/22 09:55:39;;;;;;;4.10;2.30;;;;;;;;;;5052917;28;24818;-45
2022/05/22 09:58:13;;;;;;;3.75;2.42;;;;;;;;;;5053179;28;24923;-46
2022/05/22 10:00:44;;;;;;;4.70;2.40;;;;;;;;;;5057051;28;24498;-47
2022/05/22 10:03:15;;;;;;;3.23;2.30;;;;;;;;;;5062713;28;24782;-47
2022/05/22 10:05:52;;;;;;;3.60;2.70;;;;;;;;;;5061115;28;24821;-44
2022/05/22 10:08:36;;;;;;;2.63;2.40;;;;;;;;;;5060223;28;24419;-46
2022/05/22 10:11:14;;;;;;;2.37;2.17;;;;;;;;;;5062950;28;25023;-45
2022/05/22 10:14:15;;;;;;;4.88;2.65;;;;;;;;;;5052604;28;24445;-48
2022/05/22 10:16:59;;;;;;;2.38;2.15;;;;;;;;;;5003706;28;24428;-45
2022/05/22 10:19:45;;;;;;;4.05;2.33;;;;;;;;;;5048774;28;24984;-45
2022/05/22 10:22:13;;;;;;;5.82;3.85;;;;;;;;;;5062842;28;25165;-46
2022/05/22 10:24:38;;;;;;;3.42;2.40;;;;;;;;;;5054735;28;24980;-45
2022/05/22 10:27:17;;;;;;;3.13;2.10;;;;;;;;;;5047520;28;24949;-46
2022/05/22 10:29:50;;;;;;;3.70;2.63;;;;;;;;;;5050689;28;25030;-46
2022/05/22 10:32:22;;;;;;;3.22;2.10;;;;;;;;;;5053464;28;24530;-45
2022/05/22 10:35:04;;;;;;;3.80;2.20;;;;;;;;;;5061333;28;24985;-47
2022/05/22 10:37:30;;;;;;;3.67;2.78;;;;;;;;;;5061488;28;24426;-47
2022/05/22 10:39:57;;;;;;;2.92;2.10;;;;;;;;;;5072438;28;24488;-46
2022/05/22 10:45:13;;;;;;;3.30;2.00;;;;;;;;;;5056952;28;24398;-46
2022/05/22 10:47:38;;;;;;;4.90;2.50;;;;;;;;;;5048580;28;24762;-46
2022/05/22 10:50:24;;;;;;;2.60;2.10;;;;;;;;;;5053064;28;24423;-51
2022/05/22 10:52:49;;;;;;;4.55;2.60;;;;;;;;;;5063590;28;25085;-46
2022/05/22 10:55:33;;;;;;;2.40;1.80;;;;;;;;;;5068966;28;24444;-47
2022/05/22 10:58:00;;;;;;;3.17;2.50;;;;;;;;;;5068076;28;24964;-46
2022/05/22 11:00:25;;;;;;;5.10;2.20;;;;;;;;;;5068194;28;24800;-45
2022/05/22 11:02:50;;;;;;;3.70;2.20;;;;;;;;;;5068378;28;24407;-46
2022/05/22 11:05:24;;;;;;;3.53;2.10;;;;;;;;;;5077192;28;24432;-46
2022/05/22 11:07:51;;;;;;;3.30;2.70;;;;;;;;;;5074927;28;24413;-46
2022/05/22 11:10:27;;;;;;;2.63;2.38;;;;;;;;;;5067842;28;24391;-46
2022/05/22 11:13:00;;;;;;;3.70;2.50;;;;;;;;;;5065927;28;25106;-47
2022/05/22 11:15:26;;;;;;;2.92;1.75;;;;;;;;;;5068403;28;24413;-47
2022/05/22 11:18:05;;;;;;;3.25;2.03;;;;;;;;;;5082917;28;24511;-47
2022/05/22 11:20:31;;;;;;;3.45;2.30;;;;;;;;;;5088134;28;24413;-47
2022/05/22 11:23:03;;;;;;;3.13;2.08;;;;;;;;;;5088315;28;24390;-47
2022/05/22 11:25:28;;;;;;;4.30;2.90;;;;;;;;;;5088528;28;24488;-47
2022/05/22 11:28:12;;;;;;;3.40;2.37;;;;;;;;;;5073253;28;24996;-44
2022/05/22 11:30:37;;;;;;;2.58;2.00;;;;;;;;;;5066053;28;24431;-47
2022/05/22 11:33:23;;;;;;;2.28;1.80;;;;;;;;;;5067764;28;24390;-47
2022/05/22 11:35:56;;;;;;;4.70;2.00;;;;;;;;;;5067564;28;25129;-47
2022/05/22 11:38:42;;;;;;;3.50;2.30;;;;;;;;;;5068512;28;24722;-47
2022/05/22 11:41:31;;;;;;;2.20;1.90;;;;;;;;;;5067049;28;24781;-46
2022/05/22 11:43:56;;;;;;;3.20;1.80;;;;;;;;;;5066753;28;24493;-47
2022/05/22 11:46:28;;;;;;;3.25;1.98;;;;;;;;;;5067613;28;24536;-47
2022/05/22 11:49:04;;;;;;;2.70;1.92;;;;;;;;;;5066691;28;24534;-47
2022/05/22 11:51:48;;;;;;;3.95;1.90;;;;;;;;;;5065725;28;24433;-47
2022/05/22 11:54:13;;;;;;;3.15;1.83;;;;;;;;;;5067441;28;24982;-46
2022/05/22 11:56:41;;;;;;;2.90;2.00;;;;;;;;;;5067583;28;24834;-47
2022/05/22 11:59:24;;;;;;;2.10;1.90;;;;;;;;;;5066905;28;24521;-47
2022/05/22 12:02:06;;;;;;;2.15;1.90;;;;;;;;;;5067377;28;24398;-47
2022/05/22 12:04:31;;;;;;;3.47;1.95;;;;;;;;;;5067071;28;24410;-47
2022/05/22 12:07:05;;;;;;;4.37;1.93;;;;;;;;;;5072349;28;24854;-47
2022/05/22 12:09:34;;;;;;;3.65;2.10;;;;;;;;;;5085122;28;24397;-47
2022/05/22 12:11:59;;;;;;;2.65;2.35;;;;;;;;;;5087304;28;24908;-47
2022/05/22 12:14:27;;;;;;;3.97;3.67;;;;;;;;;;5086925;28;25005;-47
2022/05/22 12:16:56;;;;;;;2.95;2.30;;;;;;;;;;5083581;28;24495;-46
2022/05/22 12:19:28;;;;;;;3.35;2.10;;;;;;;;;;5081204;28;24411;-47
2022/05/22 12:22:19;;;;;;;3.92;2.20;;;;;;;;;;5087145;28;24988;-47
2022/05/22 12:24:51;;;;;;;3.23;1.90;;;;;;;;;;5084083;28;24422;-47
2022/05/22 12:27:22;;;;;;;3.53;1.90;;;;;;;;;;5085246;28;24409;-46
2022/05/22 12:29:57;;;;;;;3.67;2.30;;;;;;;;;;5085333;28;24424;-47
2022/05/22 12:32:24;;;;;;;2.25;1.70;;;;;;;;;;5087218;28;24752;-46
2022/05/22 12:34:54;;;;;;;4.00;1.60;;;;;;;;;;5086672;28;24467;-46
2022/05/22 12:37:31;;;;;;;2.42;1.70;;;;;;;;;;5086968;28;24479;-47
2022/05/22 12:40:01;;;;;;;1.92;1.52;;;;;;;;;;5084393;28;24425;-47
2022/05/22 12:42:37;;;;;;;2.05;1.60;;;;;;;;;;5086775;28;24980;-46
2022/05/22 12:45:03;;;;;;;2.80;1.77;;;;;;;;;;5086908;28;24402;-47
2022/05/22 12:47:41;;;;;;;2.53;1.90;;;;;;;;;;5066329;28;24430;-45
2022/05/22 12:50:06;;;;;;;2.30;1.60;;;;;;;;;;5066598;28;24389;-45
2022/05/22 12:52:32;;;;;;;3.67;1.70;;;;;;;;;;5066890;28;24414;-45
2022/05/22 12:55:27;;;;;;;3.03;1.60;;;;;;;;;;5068244;28;24872;-45
2022/05/22 12:57:59;;;;;;;2.30;1.60;;;;;;;;;;5040221;28;24489;-45
2022/05/22 13:00:36;;;;;;;2.40;2.00;;;;;;;;;;5051507;28;24486;-45
2022/05/22 13:03:18;;;;;;;1.83;1.40;;;;;;;;;;5049490;28;24984;-45
2022/05/22 13:05:47;;;;;;;3.13;1.50;;;;;;;;;;5065640;28;24501;-45
2022/05/22 13:08:17;;;;;;;2.40;1.70;;;;;;;;;;5084654;28;24414;-45
2022/05/22 13:10:45;;;;;;;3.00;1.83;;;;;;;;;;5090857;28;24472;-47
2022/05/22 13:13:12;;;;;;;3.88;1.88;;;;;;;;;;5090675;28;24757;-45
2022/05/22 13:15:49;;;;;;;1.83;1.50;;;;;;;;;;5090471;28;24390;-46
2022/05/22 13:18:16;;;;;;;2.20;1.50;;;;;;;;;;5076399;28;25003;-46
2022/05/22 13:20:41;;;;;;;2.47;1.50;;;;;;;;;;5073058;28;25194;-46
2022/05/22 13:23:07;;;;;;;2.40;1.48;;;;;;;;;;5087852;28;24914;-46
2022/05/22 13:25:42;;;;;;;2.55;1.40;;;;;;;;;;5090587;28;24443;-46
2022/05/22 13:28:17;;;;;;;3.65;1.50;;;;;;;;;;5090556;28;24425;-46
2022/05/22 13:30:42;;;;;;;1.50;1.40;;;;;;;;;;5086820;28;24450;-46
2022/05/22 13:33:08;;;;;;;1.70;1.60;;;;;;;;;;5070321;28;24398;-45
2022/05/22 13:35:35;;;;;;;2.30;1.60;;;;;;;;;;5070322;28;24551;-46
2022/05/22 13:38:01;;;;;;;2.30;1.60;;;;;;;;;;5067730;28;24497;-46
2022/05/22 13:40:36;;;;;;;2.90;1.60;;;;;;;;;;5070010;28;24473;-46
2022/05/22 13:43:20;;;;;;;2.00;1.40;;;;;;;;;;5070271;28;24425;-46
2022/05/22 13:45:58;;;;;;;2.88;1.60;;;;;;;;;;5069965;28;24399;-46
2022/05/22 13:48:23;;;;;;;3.40;1.70;;;;;;;;;;5070050;28;24489;-46
2022/05/22 13:54:10;;;;;;;2.50;1.60;;;;;;;;;;5068800;28;24874;-45
2022/05/22 13:56:41;;;;;;;1.80;1.30;;;;;;;;;;5069832;28;24419;-46
2022/05/22 13:59:27;;;;;;;2.00;1.58;;;;;;;;;;5069176;28;24452;-46
2022/05/22 14:01:53;;;;;;;3.50;1.50;;;;;;;;;;5068394;28;25005;-46
2022/05/22 14:04:19;;;;;;;2.72;1.75;;;;;;;;;;5069234;28;24430;-46
2022/05/22 14:06:47;;;;;;;2.20;1.67;;;;;;;;;;5068792;28;24405;-46
2022/05/22 14:09:33;;;;;;;2.40;1.45;;;;;;;;;;5069983;28;24854;-47
2022/05/22 14:11:59;;;;;;;1.50;1.40;;;;;;;;;;5069249;28;24436;-47
2022/05/22 14:14:26;;;;;;;2.63;1.50;;;;;;;;;;5069144;28;24422;-47
2022/05/22 14:16:54;;;;;;;4.43;1.70;;;;;;;;;;5069117;28;24410;-46
2022/05/22 14:19:40;;;;;;;4.20;1.70;;;;;;;;;;5069231;28;24617;-47
2022/05/22 14:22:13;;;;;;;3.33;1.92;;;;;;;;;;5068802;28;24925;-46
2022/05/22 14:24:51;;;;;;;2.92;1.73;;;;;;;;;;5069517;28;24480;-47
2022/05/22 14:27:19;;;;;;;1.77;1.50;;;;;;;;;;5069453;28;24401;-46
2022/05/22 14:29:44;;;;;;;2.43;1.60;;;;;;;;;;5068852;28;24929;-46
2022/05/22 14:32:14;;;;;;;3.20;1.47;;;;;;;;;;5068974;28;24438;-46
2022/05/22 14:34:40;;;;;;;3.22;1.60;;;;;;;;;;5068496;28;24422;-46
2022/05/22 14:37:05;;;;;;;2.78;1.70;;;;;;;;;;5069062;28;24967;-46
2022/05/22 14:39:30;;;;;;;2.67;1.47;;;;;;;;;;5068956;28;24395;-46
2022/05/22 14:41:59;;;;;;;2.70;1.60;;;;;;;;;;5068760;28;24387;-45
2022/05/22 14:44:31;;;;;;;2.40;1.58;;;;;;;;;;5067734;28;24475;-48
2022/05/22 14:46:57;;;;;;;3.30;1.88;;;;;;;;;;5068435;28;24464;-47
2022/05/22 14:49:30;;;;;;;1.92;1.60;;;;;;;;;;5068710;28;24399;-46
2022/05/22 14:51:57;;;;;;;1.50;1.40;;;;;;;;;;5068423;28;24403;-46
2022/05/22 14:54:28;;;;;;;3.17;1.40;;;;;;;;;;5068625;28;24757;-45
2022/05/22 14:57:03;;;;;;;2.80;1.70;;;;;;;;;;5067377;28;24422;-46
2022/05/22 14:59:40;;;;;;;2.42;1.35;;;;;;;;;;5069118;28;24441;-46
2022/05/22 15:02:08;;;;;;;2.70;1.27;;;;;;;;;;5067366;28;24418;-46
2022/05/22 15:04:35;;;;;;;1.70;1.40;;;;;;;;;;5068488;28;24398;-46
2022/05/22 15:07:01;;;;;;;2.22;1.30;;;;;;;;;;5068125;28;24996;-46
2022/05/22 15:09:34;;;;;;;2.80;1.50;;;;;;;;;;5067591;28;24398;-45
2022/05/22 15:12:07;;;;;;;3.40;1.30;;;;;;;;;;5078864;28;24426;-46